sensor_id;sensor_type;location;lat;lon;timestamp;temperature;humidity
29939;DHT22;16799;50.844;5.304;2023-11-19T00:02:14;12.80;99.90
29939;DHT22;16799;50.844;5.304;2023-11-19T00:04:40;12.80;99.90
29939;DHT22;16799;50.844;5.304;2023-11-19T00:07:06;12.80;99.90
29939;DHT22;16799;50.844;5.304;2023-11-19T00:09:33;12.80;99.90
29939;DHT22;16799;50.844;5.304;2023-11-19T00:12:00;12.80;99.90
29939;DHT22;16799;50.844;5.304;2023-11-19T00:14:26;12.80;99.90
29939;DHT22;16799;50.844;5.304;2023-11-19T00:16:52;12.70;99.90
29939;DHT22;16799;50.844;5.304;2023-11-19T00:19:19;12.80;99.90
29939;DHT22;16799;50.844;5.304;2023-11-19T00:21:44;12.80;99.90
29939;DHT22;16799;50.844;5.304;2023-11-19T00:24:11;12.90;99.90
29939;DHT22;16799;50.844;5.304;2023-11-19T00:26:38;13.00;99.90
29939;DHT22;16799;50.844;5.304;2023-11-19T00:29:04;13.00;99.90
29939;DHT22;16799;50.844;5.304;2023-11-19T00:31:29;13.00;99.90
29939;DHT22;16799;50.844;5.304;2023-11-19T00:33:55;13.10;99.90
29939;DHT22;16799;50.844;5.304;2023-11-19T00:36:21;13.00;99.90
29939;DHT22;16799;50.844;5.304;2023-11-19T00:38:49;13.10;99.90
29939;DHT22;16799;50.844;5.304;2023-11-19T00:41:15;13.10;99.90
29939;DHT22;16799;50.844;5.304;2023-11-19T00:43:44;13.10;99.90
29939;DHT22;16799;50.844;5.304;2023-11-19T00:46:10;13.10;99.90
29939;DHT22;16799;50.844;5.304;2023-11-19T00:48:37;13.10;99.90
29939;DHT22;16799;50.844;5.304;2023-11-19T00:51:03;13.10;99.90
29939;DHT22;16799;50.844;5.304;2023-11-19T00:53:30;13.10;99.90
29939;DHT22;16799;50.844;5.304;2023-11-19T00:55:55;13.10;99.90
29939;DHT22;16799;50.844;5.304;2023-11-19T00:58:22;13.10;99.90
29939;DHT22;16799;50.844;5.304;2023-11-19T01:00:48;13.10;99.90
29939;DHT22;16799;50.844;5.304;2023-11-19T01:03:13;13.10;99.90
29939;DHT22;16799;50.844;5.304;2023-11-19T01:05:41;13.10;99.90
29939;DHT22;16799;50.844;5.304;2023-11-19T01:08:07;13.20;99.90
29939;DHT22;16799;50.844;5.304;2023-11-19T01:10:33;13.20;99.90
29939;DHT22;16799;50.844;5.304;2023-11-19T01:12:59;13.20;99.90
29939;DHT22;16799;50.844;5.304;2023-11-19T01:15:25;13.20;99.90
29939;DHT22;16799;50.844;5.304;2023-11-19T01:17:52;13.20;99.90
29939;DHT22;16799;50.844;5.304;2023-11-19T01:20:17;13.20;99.90
29939;DHT22;16799;50.844;5.304;2023-11-19T01:22:43;13.20;99.90
29939;DHT22;16799;50.844;5.304;2023-11-19T01:25:10;13.20;99.90
29939;DHT22;16799;50.844;5.304;2023-11-19T01:27:35;13.20;99.90
29939;DHT22;16799;50.844;5.304;2023-11-19T01:30:02;13.10;99.90
29939;DHT22;16799;50.844;5.304;2023-11-19T01:32:29;13.20;99.90
29939;DHT22;16799;50.844;5.304;2023-11-19T01:34:55;13.20;99.90
29939;DHT22;16799;50.844;5.304;2023-11-19T01:37:20;13.20;99.90
29939;DHT22;16799;50.844;5.304;2023-11-19T01:39:46;13.30;99.90
29939;DHT22;16799;50.844;5.304;2023-11-19T01:42:11;13.20;99.90
29939;DHT22;16799;50.844;5.304;2023-11-19T01:44:37;13.20;99.90
29939;DHT22;16799;50.844;5.304;2023-11-19T01:47:03;13.20;99.90
29939;DHT22;16799;50.844;5.304;2023-11-19T01:49:31;13.20;99.90
29939;DHT22;16799;50.844;5.304;2023-11-19T01:51:57;13.20;99.90
29939;DHT22;16799;50.844;5.304;2023-11-19T01:54:24;13.20;99.90
29939;DHT22;16799;50.844;5.304;2023-11-19T01:56:50;13.20;99.90
29939;DHT22;16799;50.844;5.304;2023-11-19T01:59:16;13.20;99.90
29939;DHT22;16799;50.844;5.304;2023-11-19T02:01:42;13.20;99.90
29939;DHT22;16799;50.844;5.304;2023-11-19T02:04:08;13.20;99.90
29939;DHT22;16799;50.844;5.304;2023-11-19T02:06:37;13.30;99.90
29939;DHT22;16799;50.844;5.304;2023-11-19T02:09:06;13.30;99.90
29939;DHT22;16799;50.844;5.304;2023-11-19T02:11:34;13.30;99.90
29939;DHT22;16799;50.844;5.304;2023-11-19T02:14:00;13.40;99.90
29939;DHT22;16799;50.844;5.304;2023-11-19T02:16:26;13.30;99.90
29939;DHT22;16799;50.844;5.304;2023-11-19T02:18:52;13.30;99.90
29939;DHT22;16799;50.844;5.304;2023-11-19T02:21:17;13.40;99.90
29939;DHT22;16799;50.844;5.304;2023-11-19T02:23:43;13.30;99.90
29939;DHT22;16799;50.844;5.304;2023-11-19T02:26:24;13.40;99.90
29939;DHT22;16799;50.844;5.304;2023-11-19T02:28:50;13.40;99.90
29939;DHT22;16799;50.844;5.304;2023-11-19T02:31:16;13.40;99.90
29939;DHT22;16799;50.844;5.304;2023-11-19T02:33:44;13.40;99.90
29939;DHT22;16799;50.844;5.304;2023-11-19T02:36:10;13.40;99.90
29939;DHT22;16799;50.844;5.304;2023-11-19T02:38:36;13.30;99.90
29939;DHT22;16799;50.844;5.304;2023-11-19T02:41:05;13.30;99.90
29939;DHT22;16799;50.844;5.304;2023-11-19T02:43:35;13.30;99.90
29939;DHT22;16799;50.844;5.304;2023-11-19T02:46:03;13.20;99.90
29939;DHT22;16799;50.844;5.304;2023-11-19T02:48:35;13.10;99.90
29939;DHT22;16799;50.844;5.304;2023-11-19T02:51:02;13.10;99.90
29939;DHT22;16799;50.844;5.304;2023-11-19T02:53:32;13.10;99.90
29939;DHT22;16799;50.844;5.304;2023-11-19T02:55:58;13.10;99.90
29939;DHT22;16799;50.844;5.304;2023-11-19T02:58:32;13.10;99.90
29939;DHT22;16799;50.844;5.304;2023-11-19T03:00:57;13.20;99.90
29939;DHT22;16799;50.844;5.304;2023-11-19T03:03:25;13.20;99.90
29939;DHT22;16799;50.844;5.304;2023-11-19T03:05:56;13.10;99.90
29939;DHT22;16799;50.844;5.304;2023-11-19T03:08:22;13.10;99.90
29939;DHT22;16799;50.844;5.304;2023-11-19T03:10:48;13.10;99.90
29939;DHT22;16799;50.844;5.304;2023-11-19T03:13:14;13.10;99.90
29939;DHT22;16799;50.844;5.304;2023-11-19T03:15:41;13.00;99.90
29939;DHT22;16799;50.844;5.304;2023-11-19T03:18:07;13.00;99.90
29939;DHT22;16799;50.844;5.304;2023-11-19T03:20:33;12.90;99.90
29939;DHT22;16799;50.844;5.304;2023-11-19T03:22:59;12.90;99.90
29939;DHT22;16799;50.844;5.304;2023-11-19T03:25:25;12.90;99.90
29939;DHT22;16799;50.844;5.304;2023-11-19T03:28:03;12.80;99.90
29939;DHT22;16799;50.844;5.304;2023-11-19T03:30:29;12.70;99.90
29939;DHT22;16799;50.844;5.304;2023-11-19T03:32:56;12.60;99.90
29939;DHT22;16799;50.844;5.304;2023-11-19T03:35:22;12.70;99.90
29939;DHT22;16799;50.844;5.304;2023-11-19T03:37:48;12.60;99.90
29939;DHT22;16799;50.844;5.304;2023-11-19T03:40:13;12.60;99.90
29939;DHT22;16799;50.844;5.304;2023-11-19T03:42:40;12.50;99.90
29939;DHT22;16799;50.844;5.304;2023-11-19T03:45:06;12.50;99.90
29939;DHT22;16799;50.844;5.304;2023-11-19T03:47:34;12.40;99.90
29939;DHT22;16799;50.844;5.304;2023-11-19T03:50:00;12.40;99.90
29939;DHT22;16799;50.844;5.304;2023-11-19T03:52:26;12.30;99.90
29939;DHT22;16799;50.844;5.304;2023-11-19T03:54:52;12.40;99.90
29939;DHT22;16799;50.844;5.304;2023-11-19T03:57:20;12.40;99.90
29939;DHT22;16799;50.844;5.304;2023-11-19T03:59:46;12.50;99.90
29939;DHT22;16799;50.844;5.304;2023-11-19T04:02:12;12.40;99.90
29939;DHT22;16799;50.844;5.304;2023-11-19T04:04:37;12.40;99.90
29939;DHT22;16799;50.844;5.304;2023-11-19T04:07:06;12.40;99.90
29939;DHT22;16799;50.844;5.304;2023-11-19T04:09:32;12.40;99.90
29939;DHT22;16799;50.844;5.304;2023-11-19T04:12:04;12.30;99.90
29939;DHT22;16799;50.844;5.304;2023-11-19T04:14:29;12.30;99.90
29939;DHT22;16799;50.844;5.304;2023-11-19T04:16:55;12.20;99.90
29939;DHT22;16799;50.844;5.304;2023-11-19T04:19:21;12.20;99.90
29939;DHT22;16799;50.844;5.304;2023-11-19T04:21:47;12.20;99.90
29939;DHT22;16799;50.844;5.304;2023-11-19T04:24:13;12.20;99.90
29939;DHT22;16799;50.844;5.304;2023-11-19T04:26:44;12.20;99.90
29939;DHT22;16799;50.844;5.304;2023-11-19T04:29:15;12.20;99.90
29939;DHT22;16799;50.844;5.304;2023-11-19T04:31:42;12.10;99.90
29939;DHT22;16799;50.844;5.304;2023-11-19T04:34:08;12.10;99.90
29939;DHT22;16799;50.844;5.304;2023-11-19T04:36:34;12.20;99.90
29939;DHT22;16799;50.844;5.304;2023-11-19T04:39:00;12.20;99.90
29939;DHT22;16799;50.844;5.304;2023-11-19T04:41:26;12.10;99.90
29939;DHT22;16799;50.844;5.304;2023-11-19T04:43:55;12.10;99.90
29939;DHT22;16799;50.844;5.304;2023-11-19T04:46:21;12.00;99.90
29939;DHT22;16799;50.844;5.304;2023-11-19T04:48:49;12.00;99.90
29939;DHT22;16799;50.844;5.304;2023-11-19T04:51:15;12.10;99.90
29939;DHT22;16799;50.844;5.304;2023-11-19T04:53:40;12.20;99.90
29939;DHT22;16799;50.844;5.304;2023-11-19T04:56:10;12.20;99.90
29939;DHT22;16799;50.844;5.304;2023-11-19T04:58:36;12.20;99.90
29939;DHT22;16799;50.844;5.304;2023-11-19T05:01:03;12.30;99.90
29939;DHT22;16799;50.844;5.304;2023-11-19T05:03:30;12.30;99.90
29939;DHT22;16799;50.844;5.304;2023-11-19T05:05:57;12.30;99.90
29939;DHT22;16799;50.844;5.304;2023-11-19T05:08:22;12.30;99.90
29939;DHT22;16799;50.844;5.304;2023-11-19T05:10:48;12.40;99.90
29939;DHT22;16799;50.844;5.304;2023-11-19T05:13:13;12.40;99.90
29939;DHT22;16799;50.844;5.304;2023-11-19T05:15:40;12.30;99.90
29939;DHT22;16799;50.844;5.304;2023-11-19T05:18:06;12.30;99.90
29939;DHT22;16799;50.844;5.304;2023-11-19T05:20:31;12.30;99.90
29939;DHT22;16799;50.844;5.304;2023-11-19T05:22:57;12.30;99.90
29939;DHT22;16799;50.844;5.304;2023-11-19T05:25:26;12.30;99.90
29939;DHT22;16799;50.844;5.304;2023-11-19T05:27:52;12.30;99.90
29939;DHT22;16799;50.844;5.304;2023-11-19T05:30:17;12.20;99.90
29939;DHT22;16799;50.844;5.304;2023-11-19T05:32:43;12.20;99.90
29939;DHT22;16799;50.844;5.304;2023-11-19T05:35:09;12.20;99.90
29939;DHT22;16799;50.844;5.304;2023-11-19T05:37:35;12.30;99.90
29939;DHT22;16799;50.844;5.304;2023-11-19T05:40:01;12.30;99.90
29939;DHT22;16799;50.844;5.304;2023-11-19T05:42:28;12.30;99.90
29939;DHT22;16799;50.844;5.304;2023-11-19T05:44:54;12.30;99.90
29939;DHT22;16799;50.844;5.304;2023-11-19T05:47:20;12.30;99.90
29939;DHT22;16799;50.844;5.304;2023-11-19T05:49:45;12.30;99.90
29939;DHT22;16799;50.844;5.304;2023-11-19T05:52:11;12.40;99.90
29939;DHT22;16799;50.844;5.304;2023-11-19T05:54:38;12.40;99.90
29939;DHT22;16799;50.844;5.304;2023-11-19T05:57:04;12.20;99.90
29939;DHT22;16799;50.844;5.304;2023-11-19T05:59:30;12.10;99.90
29939;DHT22;16799;50.844;5.304;2023-11-19T06:01:57;12.10;99.90
29939;DHT22;16799;50.844;5.304;2023-11-19T06:04:23;12.00;99.90
29939;DHT22;16799;50.844;5.304;2023-11-19T06:06:49;11.90;99.90
29939;DHT22;16799;50.844;5.304;2023-11-19T06:09:14;11.90;99.90
29939;DHT22;16799;50.844;5.304;2023-11-19T06:11:40;11.80;99.90
29939;DHT22;16799;50.844;5.304;2023-11-19T06:14:06;11.80;99.90
29939;DHT22;16799;50.844;5.304;2023-11-19T06:16:32;11.70;99.90
29939;DHT22;16799;50.844;5.304;2023-11-19T06:18:58;11.60;99.90
29939;DHT22;16799;50.844;5.304;2023-11-19T06:21:24;11.60;99.90
29939;DHT22;16799;50.844;5.304;2023-11-19T06:23:50;11.60;99.90
29939;DHT22;16799;50.844;5.304;2023-11-19T06:26:17;11.70;99.90
29939;DHT22;16799;50.844;5.304;2023-11-19T06:28:43;11.80;99.90
29939;DHT22;16799;50.844;5.304;2023-11-19T06:31:10;11.70;99.90
29939;DHT22;16799;50.844;5.304;2023-11-19T06:33:35;11.70;99.90
29939;DHT22;16799;50.844;5.304;2023-11-19T06:36:01;11.70;99.90
29939;DHT22;16799;50.844;5.304;2023-11-19T06:38:27;11.60;99.90
29939;DHT22;16799;50.844;5.304;2023-11-19T06:40:52;11.60;99.90
29939;DHT22;16799;50.844;5.304;2023-11-19T06:43:18;11.70;99.90
29939;DHT22;16799;50.844;5.304;2023-11-19T06:45:43;11.80;99.90
29939;DHT22;16799;50.844;5.304;2023-11-19T06:48:09;11.80;99.90
29939;DHT22;16799;50.844;5.304;2023-11-19T06:50:35;11.80;99.90
29939;DHT22;16799;50.844;5.304;2023-11-19T06:53:01;11.70;99.90
29939;DHT22;16799;50.844;5.304;2023-11-19T06:55:27;11.60;99.90
29939;DHT22;16799;50.844;5.304;2023-11-19T06:57:53;11.50;99.90
29939;DHT22;16799;50.844;5.304;2023-11-19T07:00:18;11.50;99.90
29939;DHT22;16799;50.844;5.304;2023-11-19T07:02:44;11.50;99.90
29939;DHT22;16799;50.844;5.304;2023-11-19T07:05:10;11.40;99.90
29939;DHT22;16799;50.844;5.304;2023-11-19T07:07:38;11.40;99.90
29939;DHT22;16799;50.844;5.304;2023-11-19T07:10:06;11.50;99.90
29939;DHT22;16799;50.844;5.304;2023-11-19T07:12:34;11.40;99.90
29939;DHT22;16799;50.844;5.304;2023-11-19T07:15:01;11.40;99.90
29939;DHT22;16799;50.844;5.304;2023-11-19T07:17:29;11.40;99.90
29939;DHT22;16799;50.844;5.304;2023-11-19T07:19:55;11.40;99.90
29939;DHT22;16799;50.844;5.304;2023-11-19T07:22:24;11.30;99.90
29939;DHT22;16799;50.844;5.304;2023-11-19T07:24:50;11.30;99.90
29939;DHT22;16799;50.844;5.304;2023-11-19T07:27:16;11.30;99.90
29939;DHT22;16799;50.844;5.304;2023-11-19T07:29:43;11.40;99.90
29939;DHT22;16799;50.844;5.304;2023-11-19T07:32:09;11.40;99.90
29939;DHT22;16799;50.844;5.304;2023-11-19T07:34:35;11.40;99.90
29939;DHT22;16799;50.844;5.304;2023-11-19T07:37:01;11.40;99.90
29939;DHT22;16799;50.844;5.304;2023-11-19T07:39:28;11.40;99.90
29939;DHT22;16799;50.844;5.304;2023-11-19T07:41:54;11.40;99.90
29939;DHT22;16799;50.844;5.304;2023-11-19T07:44:20;11.40;99.90
29939;DHT22;16799;50.844;5.304;2023-11-19T07:46:47;11.40;99.90
29939;DHT22;16799;50.844;5.304;2023-11-19T07:49:13;11.40;99.90
29939;DHT22;16799;50.844;5.304;2023-11-19T07:51:39;11.40;99.90
29939;DHT22;16799;50.844;5.304;2023-11-19T07:54:05;11.40;99.90
29939;DHT22;16799;50.844;5.304;2023-11-19T07:56:32;11.50;99.90
29939;DHT22;16799;50.844;5.304;2023-11-19T07:58:59;11.50;99.90
29939;DHT22;16799;50.844;5.304;2023-11-19T08:01:25;11.50;99.90
29939;DHT22;16799;50.844;5.304;2023-11-19T08:03:51;11.60;99.90
29939;DHT22;16799;50.844;5.304;2023-11-19T08:06:16;11.70;99.90
29939;DHT22;16799;50.844;5.304;2023-11-19T08:08:42;11.60;99.90
29939;DHT22;16799;50.844;5.304;2023-11-19T08:11:08;11.70;99.90
29939;DHT22;16799;50.844;5.304;2023-11-19T08:13:34;11.70;99.90
29939;DHT22;16799;50.844;5.304;2023-11-19T08:15:59;11.80;99.90
29939;DHT22;16799;50.844;5.304;2023-11-19T08:18:25;11.90;99.90
29939;DHT22;16799;50.844;5.304;2023-11-19T08:20:50;11.90;99.90
29939;DHT22;16799;50.844;5.304;2023-11-19T08:23:19;11.90;99.90
29939;DHT22;16799;50.844;5.304;2023-11-19T08:25:45;11.90;99.90
29939;DHT22;16799;50.844;5.304;2023-11-19T08:28:11;11.90;99.90
29939;DHT22;16799;50.844;5.304;2023-11-19T08:30:36;12.00;99.90
29939;DHT22;16799;50.844;5.304;2023-11-19T08:33:02;12.00;99.90
29939;DHT22;16799;50.844;5.304;2023-11-19T08:35:31;12.00;99.90
29939;DHT22;16799;50.844;5.304;2023-11-19T08:37:57;12.10;99.90
29939;DHT22;16799;50.844;5.304;2023-11-19T08:40:24;12.20;99.90
29939;DHT22;16799;50.844;5.304;2023-11-19T08:42:51;12.30;99.90
29939;DHT22;16799;50.844;5.304;2023-11-19T08:45:17;12.20;99.90
29939;DHT22;16799;50.844;5.304;2023-11-19T08:47:42;12.30;99.90
29939;DHT22;16799;50.844;5.304;2023-11-19T08:50:08;12.40;99.90
29939;DHT22;16799;50.844;5.304;2023-11-19T08:52:34;12.50;99.90
29939;DHT22;16799;50.844;5.304;2023-11-19T08:55:00;12.60;99.90
29939;DHT22;16799;50.844;5.304;2023-11-19T08:57:26;12.60;99.90
29939;DHT22;16799;50.844;5.304;2023-11-19T08:59:51;12.70;99.90
29939;DHT22;16799;50.844;5.304;2023-11-19T09:02:17;12.70;99.90
29939;DHT22;16799;50.844;5.304;2023-11-19T09:04:44;12.80;99.90
29939;DHT22;16799;50.844;5.304;2023-11-19T09:07:09;12.90;99.90
29939;DHT22;16799;50.844;5.304;2023-11-19T09:09:35;12.90;99.90
29939;DHT22;16799;50.844;5.304;2023-11-19T09:12:02;12.90;99.90
29939;DHT22;16799;50.844;5.304;2023-11-19T09:14:29;12.90;99.90
29939;DHT22;16799;50.844;5.304;2023-11-19T09:16:56;13.10;99.90
29939;DHT22;16799;50.844;5.304;2023-11-19T09:19:21;13.30;99.90
29939;DHT22;16799;50.844;5.304;2023-11-19T09:21:47;13.30;99.90
29939;DHT22;16799;50.844;5.304;2023-11-19T09:24:14;13.40;99.90
29939;DHT22;16799;50.844;5.304;2023-11-19T09:26:40;13.60;99.90
29939;DHT22;16799;50.844;5.304;2023-11-19T09:29:10;13.40;99.90
29939;DHT22;16799;50.844;5.304;2023-11-19T09:31:38;13.40;99.90
29939;DHT22;16799;50.844;5.304;2023-11-19T09:34:03;13.20;99.90
29939;DHT22;16799;50.844;5.304;2023-11-19T09:36:29;13.00;99.90
29939;DHT22;16799;50.844;5.304;2023-11-19T09:38:54;12.90;99.90
29939;DHT22;16799;50.844;5.304;2023-11-19T09:41:20;12.90;99.90
29939;DHT22;16799;50.844;5.304;2023-11-19T09:43:46;12.80;99.90
29939;DHT22;16799;50.844;5.304;2023-11-19T09:46:15;12.80;99.90
29939;DHT22;16799;50.844;5.304;2023-11-19T09:48:42;12.90;99.90
29939;DHT22;16799;50.844;5.304;2023-11-19T09:51:10;13.00;99.90
29939;DHT22;16799;50.844;5.304;2023-11-19T09:53:37;13.20;99.90
29939;DHT22;16799;50.844;5.304;2023-11-19T09:56:06;13.60;99.90
29939;DHT22;16799;50.844;5.304;2023-11-19T09:58:33;14.00;99.90
29939;DHT22;16799;50.844;5.304;2023-11-19T10:01:00;13.90;99.90
29939;DHT22;16799;50.844;5.304;2023-11-19T10:03:33;13.70;99.90
29939;DHT22;16799;50.844;5.304;2023-11-19T10:06:01;13.50;99.90
29939;DHT22;16799;50.844;5.304;2023-11-19T10:08:27;13.50;99.90
29939;DHT22;16799;50.844;5.304;2023-11-19T10:10:53;13.40;99.90
29939;DHT22;16799;50.844;5.304;2023-11-19T10:13:19;13.20;99.90
29939;DHT22;16799;50.844;5.304;2023-11-19T10:15:45;13.00;99.90
29939;DHT22;16799;50.844;5.304;2023-11-19T10:18:11;12.90;99.90
29939;DHT22;16799;50.844;5.304;2023-11-19T10:20:42;13.00;99.90
29939;DHT22;16799;50.844;5.304;2023-11-19T10:23:09;13.60;99.90
29939;DHT22;16799;50.844;5.304;2023-11-19T10:25:36;14.10;99.90
29939;DHT22;16799;50.844;5.304;2023-11-19T10:28:02;14.10;99.90
29939;DHT22;16799;50.844;5.304;2023-11-19T10:30:30;13.90;99.90
29939;DHT22;16799;50.844;5.304;2023-11-19T10:33:09;13.50;99.90
29939;DHT22;16799;50.844;5.304;2023-11-19T10:35:49;13.10;99.90
29939;DHT22;16799;50.844;5.304;2023-11-19T10:38:15;13.10;99.90
29939;DHT22;16799;50.844;5.304;2023-11-19T10:40:41;13.80;99.90
29939;DHT22;16799;50.844;5.304;2023-11-19T10:43:07;14.50;99.90
29939;DHT22;16799;50.844;5.304;2023-11-19T10:45:34;14.80;99.90
29939;DHT22;16799;50.844;5.304;2023-11-19T10:48:00;15.00;99.90
29939;DHT22;16799;50.844;5.304;2023-11-19T10:50:27;15.10;99.90
29939;DHT22;16799;50.844;5.304;2023-11-19T10:52:57;15.10;99.90
29939;DHT22;16799;50.844;5.304;2023-11-19T10:55:30;15.50;99.90
29939;DHT22;16799;50.844;5.304;2023-11-19T10:58:03;15.40;99.90
29939;DHT22;16799;50.844;5.304;2023-11-19T11:00:43;15.50;99.90
29939;DHT22;16799;50.844;5.304;2023-11-19T11:03:20;15.60;99.90
29939;DHT22;16799;50.844;5.304;2023-11-19T11:05:47;15.60;99.90
29939;DHT22;16799;50.844;5.304;2023-11-19T11:08:13;15.80;99.90
29939;DHT22;16799;50.844;5.304;2023-11-19T11:10:59;15.80;99.90
29939;DHT22;16799;50.844;5.304;2023-11-19T11:13:26;16.10;99.90
29939;DHT22;16799;50.844;5.304;2023-11-19T11:15:55;16.20;99.90
29939;DHT22;16799;50.844;5.304;2023-11-19T11:18:24;16.00;99.90
29939;DHT22;16799;50.844;5.304;2023-11-19T11:21:14;15.50;99.90
29939;DHT22;16799;50.844;5.304;2023-11-19T11:24:16;15.00;99.90
29939;DHT22;16799;50.844;5.304;2023-11-19T11:38:08;15.10;99.90
29939;DHT22;16799;50.844;5.304;2023-11-19T11:40:35;14.90;99.90
29939;DHT22;16799;50.844;5.304;2023-11-19T11:43:02;15.00;99.90
29939;DHT22;16799;50.844;5.304;2023-11-19T11:48:23;15.10;99.90
29939;DHT22;16799;50.844;5.304;2023-11-19T11:50:51;15.60;99.90
29939;DHT22;16799;50.844;5.304;2023-11-19T11:53:19;15.40;99.90
29939;DHT22;16799;50.844;5.304;2023-11-19T11:58:13;14.80;99.90
29939;DHT22;16799;50.844;5.304;2023-11-19T12:00:42;14.90;99.90
29939;DHT22;16799;50.844;5.304;2023-11-19T12:03:09;14.80;99.90
29939;DHT22;16799;50.844;5.304;2023-11-19T12:05:44;14.70;99.90
29939;DHT22;16799;50.844;5.304;2023-11-19T12:08:11;14.50;99.90
29939;DHT22;16799;50.844;5.304;2023-11-19T12:10:44;14.80;99.90
29939;DHT22;16799;50.844;5.304;2023-11-19T12:13:11;15.30;99.90
29939;DHT22;16799;50.844;5.304;2023-11-19T12:18:27;15.90;99.90
29939;DHT22;16799;50.844;5.304;2023-11-19T12:20:54;16.10;99.90
29939;DHT22;16799;50.844;5.304;2023-11-19T12:23:20;16.50;99.90
29939;DHT22;16799;50.844;5.304;2023-11-19T12:25:46;15.90;99.90
29939;DHT22;16799;50.844;5.304;2023-11-19T12:28:12;15.80;99.90
29939;DHT22;16799;50.844;5.304;2023-11-19T12:30:39;16.00;99.90
29939;DHT22;16799;50.844;5.304;2023-11-19T12:33:08;16.40;99.90
29939;DHT22;16799;50.844;5.304;2023-11-19T12:35:45;16.60;99.90
29939;DHT22;16799;50.844;5.304;2023-11-19T12:38:23;17.00;99.90
29939;DHT22;16799;50.844;5.304;2023-11-19T12:41:09;17.00;99.90
29939;DHT22;16799;50.844;5.304;2023-11-19T12:43:39;17.20;99.90
29939;DHT22;16799;50.844;5.304;2023-11-19T12:46:23;17.20;99.90
29939;DHT22;16799;50.844;5.304;2023-11-19T12:48:50;16.60;99.90
29939;DHT22;16799;50.844;5.304;2023-11-19T12:51:17;16.70;99.90
29939;DHT22;16799;50.844;5.304;2023-11-19T12:53:52;16.20;99.90
29939;DHT22;16799;50.844;5.304;2023-11-19T12:56:23;15.70;99.90
29939;DHT22;16799;50.844;5.304;2023-11-19T12:58:49;15.40;99.90
29939;DHT22;16799;50.844;5.304;2023-11-19T13:01:17;15.40;99.90
29939;DHT22;16799;50.844;5.304;2023-11-19T13:03:44;15.20;99.90
29939;DHT22;16799;50.844;5.304;2023-11-19T13:06:12;14.70;99.90
29939;DHT22;16799;50.844;5.304;2023-11-19T13:08:38;14.40;99.90
29939;DHT22;16799;50.844;5.304;2023-11-19T13:11:04;14.30;99.90
29939;DHT22;16799;50.844;5.304;2023-11-19T13:13:32;14.10;99.90
29939;DHT22;16799;50.844;5.304;2023-11-19T13:16:04;14.00;99.90
29939;DHT22;16799;50.844;5.304;2023-11-19T13:18:31;13.80;99.90
29939;DHT22;16799;50.844;5.304;2023-11-19T13:20:56;13.60;99.90
29939;DHT22;16799;50.844;5.304;2023-11-19T13:23:25;13.30;99.90
29939;DHT22;16799;50.844;5.304;2023-11-19T13:25:50;13.10;99.90
29939;DHT22;16799;50.844;5.304;2023-11-19T13:28:16;13.10;99.90
29939;DHT22;16799;50.844;5.304;2023-11-19T13:30:41;13.20;99.90
29939;DHT22;16799;50.844;5.304;2023-11-19T13:33:07;13.20;99.90
29939;DHT22;16799;50.844;5.304;2023-11-19T13:35:35;13.20;99.90
29939;DHT22;16799;50.844;5.304;2023-11-19T13:38:02;13.30;99.90
29939;DHT22;16799;50.844;5.304;2023-11-19T13:40:27;13.40;99.90
29939;DHT22;16799;50.844;5.304;2023-11-19T13:42:53;13.40;99.90
29939;DHT22;16799;50.844;5.304;2023-11-19T13:45:19;13.60;99.90
29939;DHT22;16799;50.844;5.304;2023-11-19T13:47:46;13.80;99.90
29939;DHT22;16799;50.844;5.304;2023-11-19T13:50:13;13.90;99.90
29939;DHT22;16799;50.844;5.304;2023-11-19T13:52:41;14.00;99.90
29939;DHT22;16799;50.844;5.304;2023-11-19T13:55:09;13.90;99.90
29939;DHT22;16799;50.844;5.304;2023-11-19T13:57:35;13.70;99.90
29939;DHT22;16799;50.844;5.304;2023-11-19T14:00:08;13.50;99.90
29939;DHT22;16799;50.844;5.304;2023-11-19T14:02:46;13.50;99.90
29939;DHT22;16799;50.844;5.304;2023-11-19T14:05:13;13.40;99.90
29939;DHT22;16799;50.844;5.304;2023-11-19T14:07:42;13.40;99.90
29939;DHT22;16799;50.844;5.304;2023-11-19T14:10:09;13.30;99.90
29939;DHT22;16799;50.844;5.304;2023-11-19T14:12:39;13.00;99.90
29939;DHT22;16799;50.844;5.304;2023-11-19T14:15:06;13.00;99.90
29939;DHT22;16799;50.844;5.304;2023-11-19T14:17:33;12.90;99.90
29939;DHT22;16799;50.844;5.304;2023-11-19T14:19:59;12.90;99.90
29939;DHT22;16799;50.844;5.304;2023-11-19T14:22:25;12.90;99.90
29939;DHT22;16799;50.844;5.304;2023-11-19T14:24:51;13.00;99.90
29939;DHT22;16799;50.844;5.304;2023-11-19T14:27:17;13.00;99.90
29939;DHT22;16799;50.844;5.304;2023-11-19T14:29:43;13.00;99.90
29939;DHT22;16799;50.844;5.304;2023-11-19T14:32:10;13.10;99.90
29939;DHT22;16799;50.844;5.304;2023-11-19T14:34:36;13.10;99.90
29939;DHT22;16799;50.844;5.304;2023-11-19T14:37:02;13.10;99.90
29939;DHT22;16799;50.844;5.304;2023-11-19T14:39:28;13.10;99.90
29939;DHT22;16799;50.844;5.304;2023-11-19T14:41:59;13.10;99.90
29939;DHT22;16799;50.844;5.304;2023-11-19T14:44:29;13.00;99.90
29939;DHT22;16799;50.844;5.304;2023-11-19T14:46:55;13.00;99.90
29939;DHT22;16799;50.844;5.304;2023-11-19T14:49:21;13.00;99.90
29939;DHT22;16799;50.844;5.304;2023-11-19T14:51:46;13.10;99.90
29939;DHT22;16799;50.844;5.304;2023-11-19T14:54:12;13.10;99.90
29939;DHT22;16799;50.844;5.304;2023-11-19T14:56:40;13.10;99.90
29939;DHT22;16799;50.844;5.304;2023-11-19T14:59:05;13.00;99.90
29939;DHT22;16799;50.844;5.304;2023-11-19T15:01:31;13.00;99.90
29939;DHT22;16799;50.844;5.304;2023-11-19T15:03:57;13.10;99.90
29939;DHT22;16799;50.844;5.304;2023-11-19T15:06:23;13.00;99.90
29939;DHT22;16799;50.844;5.304;2023-11-19T15:08:50;13.10;99.90
29939;DHT22;16799;50.844;5.304;2023-11-19T15:11:16;13.10;99.90
29939;DHT22;16799;50.844;5.304;2023-11-19T15:13:42;13.10;99.90
29939;DHT22;16799;50.844;5.304;2023-11-19T15:16:08;13.10;99.90
29939;DHT22;16799;50.844;5.304;2023-11-19T15:18:37;13.10;99.90
29939;DHT22;16799;50.844;5.304;2023-11-19T15:21:03;13.10;99.90
29939;DHT22;16799;50.844;5.304;2023-11-19T15:23:29;13.20;99.90
29939;DHT22;16799;50.844;5.304;2023-11-19T15:25:55;13.10;99.90
29939;DHT22;16799;50.844;5.304;2023-11-19T15:28:20;13.10;99.90
29939;DHT22;16799;50.844;5.304;2023-11-19T15:30:47;13.10;99.90
29939;DHT22;16799;50.844;5.304;2023-11-19T15:33:12;13.10;99.90
29939;DHT22;16799;50.844;5.304;2023-11-19T15:35:38;13.00;99.90
29939;DHT22;16799;50.844;5.304;2023-11-19T15:38:05;13.10;99.90
29939;DHT22;16799;50.844;5.304;2023-11-19T15:40:34;13.10;99.90
29939;DHT22;16799;50.844;5.304;2023-11-19T15:42:59;13.00;99.90
29939;DHT22;16799;50.844;5.304;2023-11-19T15:45:25;13.00;99.90
29939;DHT22;16799;50.844;5.304;2023-11-19T15:47:51;12.90;99.90
29939;DHT22;16799;50.844;5.304;2023-11-19T15:50:17;12.90;99.90